Time,TemperatureF,DewpointF,PressureIn,WindDirection,WindDirectionDegrees,WindSpeedMPH,WindSpeedGustMPH,Humidity,HourlyPrecipIn,Conditions,Clouds,dailyrainin,SoftwareType,DateUTC
2013-06-17 00:02:00,69.0,68.0,-100.00,North,0,4.0,8.0,94,0.00,,,-99.99,,2013-06-17 04:02:00,
2013-06-17 00:12:00,69.0,67.0,-100.00,North,0,2.0,7.0,94,0.00,,,-99.99,,2013-06-17 04:12:00,
2013-06-17 00:22:00,69.0,67.0,-100.00,NNE,15,2.0,5.0,94,0.00,,,-99.99,,2013-06-17 04:22:00,
2013-06-17 00:34:00,69.0,67.0,-100.00,North,10,3.0,6.0,95,0.00,,,-99.99,,2013-06-17 04:34:00,
2013-06-17 00:43:00,68.0,67.0,-100.00,NNE,15,2.0,3.0,95,0.00,,,-99.99,,2013-06-17 04:43:00,
2013-06-17 00:53:00,68.0,67.0,-100.00,NNE,20,3.0,4.0,95,0.00,,,-99.99,,2013-06-17 04:53:00,
2013-06-17 01:02:00,68.0,67.0,-100.00,NNE,25,2.0,4.0,96,0.00,,,-99.99,,2013-06-17 05:02:00,
2013-06-17 01:12:00,68.0,67.0,-100.00,NNE,15,2.0,7.0,96,0.00,,,-99.99,,2013-06-17 05:12:00,
2013-06-17 01:22:00,68.0,67.0,-100.00,NNE,15,2.0,7.0,96,0.00,,,-99.99,,2013-06-17 05:22:00,
2013-06-17 01:33:00,68.0,67.0,-100.00,NNE,15,2.0,7.0,96,0.00,,,-99.99,,2013-06-17 05:33:00,
2013-06-17 01:44:00,67.0,66.0,-100.00,North,0,1.0,4.0,96,0.00,,,-99.99,,2013-06-17 05:44:00,
2013-06-17 01:53:00,67.0,66.0,-100.00,NNE,20,2.0,3.0,96,0.00,,,-99.99,,2013-06-17 05:53:00,
2013-06-17 02:02:00,67.0,66.0,-100.00,NNE,25,2.0,4.0,96,0.00,,,-99.99,,2013-06-17 06:02:00,
2013-06-17 02:12:00,66.0,65.0,-100.00,NNE,20,1.0,4.0,96,0.00,,,-99.99,,2013-06-17 06:12:00,
2013-06-17 02:22:00,66.0,65.0,-100.00,North,5,2.0,4.0,96,0.00,,,-99.99,,2013-06-17 06:22:00,
2013-06-17 02:33:00,66.0,65.0,-100.00,North,5,2.0,4.0,97,0.00,,,-99.99,,2013-06-17 06:33:00,
2013-06-17 02:43:00,65.0,65.0,-100.00,North,10,2.0,4.0,97,0.00,,,-99.99,,2013-06-17 06:43:00,
2013-06-17 02:53:00,65.0,64.0,-100.00,North,5,2.0,4.0,97,0.00,,,-99.99,,2013-06-17 06:53:00,
2013-06-17 03:02:00,65.0,64.0,-100.00,North,5,2.0,4.0,97,0.00,,,-99.99,,2013-06-17 07:02:00,
2013-06-17 03:12:00,65.0,64.0,-100.00,NNE,20,2.0,4.0,97,0.00,,,-99.99,,2013-06-17 07:12:00,
2013-06-17 03:22:00,64.0,63.0,-100.00,NNE,20,2.0,4.0,96,0.00,,,-99.99,,2013-06-17 07:22:00,
2013-06-17 03:33:00,64.0,63.0,-100.00,NNE,20,2.0,3.0,96,0.00,,,-99.99,,2013-06-17 07:33:00,
2013-06-17 03:43:00,64.0,63.0,-100.00,NNE,20,2.0,4.0,96,0.00,,,-99.99,,2013-06-17 07:43:00,
2013-06-17 03:53:00,64.0,63.0,-100.00,NNE,20,3.0,4.0,96,0.00,,,-99.99,,2013-06-17 07:53:00,
2013-06-17 04:02:00,64.0,63.0,-100.00,NNE,25,2.0,3.0,96,0.00,,,-99.99,,2013-06-17 08:02:00,
2013-06-17 04:12:00,64.0,63.0,-100.00,NNE,25,2.0,3.0,96,0.00,,,-99.99,,2013-06-17 08:12:00,
2013-06-17 04:22:00,63.0,62.0,-100.00,NNE,20,3.0,4.0,96,0.00,,,-99.99,,2013-06-17 08:22:00,
2013-06-17 04:34:00,63.0,62.0,-100.00,NNE,15,3.0,4.0,95,0.00,,,-99.99,,2013-06-17 08:34:00,
2013-06-17 04:43:00,63.0,62.0,-100.00,NNE,20,2.0,4.0,95,0.00,,,-99.99,,2013-06-17 08:43:00,
2013-06-17 04:53:00,63.0,62.0,-100.00,NNE,15,2.0,4.0,95,0.00,,,-99.99,,2013-06-17 08:53:00,
2013-06-17 05:02:00,63.0,62.0,-100.00,NNE,15,2.0,4.0,95,0.00,,,-99.99,,2013-06-17 09:02:00,
2013-06-17 05:12:00,63.0,62.0,-100.00,NNE,20,2.0,4.0,96,0.00,,,-99.99,,2013-06-17 09:12:00,
2013-06-17 05:22:00,63.0,62.0,-100.00,NNE,20,2.0,4.0,96,0.00,,,-99.99,,2013-06-17 09:22:00,
2013-06-17 05:34:00,63.0,62.0,-100.00,NNE,20,2.0,5.0,95,0.00,,,-99.99,,2013-06-17 09:34:00,
2013-06-17 05:43:00,63.0,62.0,-100.00,NNE,20,2.0,4.0,95,0.00,,,-99.99,,2013-06-17 09:43:00,
2013-06-17 05:52:00,63.0,62.0,-100.00,NNE,20,2.0,3.0,95,0.00,,,-99.99,,2013-06-17 09:52:00,
2013-06-17 06:02:00,63.0,61.0,-100.00,NNE,15,2.0,3.0,95,0.00,,,-99.99,,2013-06-17 10:02:00,
2013-06-17 06:12:00,63.0,61.0,-100.00,NNE,15,2.0,3.0,95,0.00,,,-99.99,,2013-06-17 10:12:00,
2013-06-17 06:22:00,63.0,61.0,-100.00,North,10,2.0,4.0,94,0.00,,,-99.99,,2013-06-17 10:22:00,
2013-06-17 06:33:00,63.0,61.0,-100.00,NNE,20,2.0,4.0,94,0.00,,,-99.99,,2013-06-17 10:33:00,
2013-06-17 06:43:00,64.0,62.0,-100.00,NNE,25,2.0,4.0,94,0.00,,,-99.99,,2013-06-17 10:43:00,
2013-06-17 06:54:00,64.0,62.0,-100.00,North,10,3.0,6.0,93,0.00,,,-99.99,,2013-06-17 10:54:00,
2013-06-17 07:02:00,65.0,62.0,-100.00,NNE,30,3.0,4.0,92,0.00,,,-99.99,,2013-06-17 11:02:00,
2013-06-17 07:12:00,65.0,63.0,-100.00,NNE,15,3.0,6.0,90,0.00,,,-99.99,,2013-06-17 11:12:00,
2013-06-17 07:23:00,66.0,63.0,-100.00,North,5,1.0,4.0,89,0.00,,,-99.99,,2013-06-17 11:23:00,
2013-06-17 08:12:00,69.0,63.0,-100.00,North,0,2.0,5.0,80,0.00,,,-99.99,,2013-06-17 12:12:00,
2013-06-17 09:12:00,73.0,60.0,-100.00,NNE,30,6.0,9.0,62,0.00,,,-99.99,,2013-06-17 13:12:00,
2013-06-17 09:22:00,74.0,60.0,-100.00,NE,35,4.0,7.0,60,0.00,,,-99.99,,2013-06-17 13:22:00,
2013-06-17 09:32:00,74.0,60.0,-100.00,NE,35,4.0,7.0,60,0.00,,,-99.99,,2013-06-17 13:32:00,
2013-06-17 09:43:00,75.0,57.0,-100.00,NNE,20,6.0,9.0,54,0.00,,,-99.99,,2013-06-17 13:43:00,
2013-06-17 09:52:00,75.0,57.0,-100.00,ENE,65,4.0,10.0,53,0.00,,,-99.99,,2013-06-17 13:52:00,
2013-06-17 10:02:00,75.0,58.0,-100.00,NNE,30,5.0,10.0,54,0.00,,,-99.99,,2013-06-17 14:02:00,
2013-06-17 10:12:00,76.0,58.0,-100.00,NE,35,6.0,11.0,54,0.00,,,-99.99,,2013-06-17 14:12:00,
2013-06-17 10:22:00,75.0,58.0,-100.00,NNE,20,6.0,9.0,54,0.00,,,-99.99,,2013-06-17 14:22:00,
2013-06-17 10:34:00,76.0,57.0,-100.00,NE,50,5.0,12.0,53,0.00,,,-99.99,,2013-06-17 14:34:00,
2013-06-17 10:43:00,76.0,57.0,-100.00,NNE,30,7.0,12.0,51,0.00,,,-99.99,,2013-06-17 14:43:00,
2013-06-17 10:53:00,77.0,57.0,-100.00,NNE,30,6.0,9.0,51,0.00,,,-99.99,,2013-06-17 14:53:00,
2013-06-17 11:02:00,78.0,58.0,-100.00,NNE,30,4.0,9.0,51,0.00,,,-99.99,,2013-06-17 15:02:00,
2013-06-17 11:12:00,78.0,58.0,-100.00,NNE,30,4.0,9.0,51,0.00,,,-99.99,,2013-06-17 15:12:00,
2013-06-17 11:22:00,77.0,56.0,-100.00,NE,45,6.0,9.0,48,0.00,,,-99.99,,2013-06-17 15:22:00,
2013-06-17 11:33:00,77.0,56.0,-100.00,NE,45,6.0,9.0,48,0.00,,,-99.99,,2013-06-17 15:33:00,
2013-06-17 11:43:00,78.0,57.0,-100.00,NE,55,6.0,12.0,49,0.00,,,-99.99,,2013-06-17 15:43:00,
2013-06-17 11:52:00,78.0,57.0,-100.00,NE,55,6.0,12.0,49,0.00,,,-99.99,,2013-06-17 15:52:00,
2013-06-17 12:02:00,78.0,57.0,-100.00,NE,40,4.0,11.0,48,0.00,,,-99.99,,2013-06-17 16:02:00,
2013-06-17 12:12:00,78.0,58.0,-100.00,NE,45,7.0,13.0,48,0.00,,,-99.99,,2013-06-17 16:12:00,
2013-06-17 12:22:00,79.0,57.0,-100.00,NE,45,6.0,12.0,47,0.00,,,-99.99,,2013-06-17 16:22:00,
2013-06-17 12:33:00,79.0,58.0,-100.00,NE,40,7.0,13.0,47,0.00,,,-99.99,,2013-06-17 16:33:00,
2013-06-17 12:43:00,80.0,58.0,-100.00,NE,40,6.0,11.0,46,0.00,,,-99.99,,2013-06-17 16:43:00,
2013-06-17 12:53:00,80.0,57.0,-100.00,NE,40,7.0,12.0,45,0.00,,,-99.99,,2013-06-17 16:53:00,
2013-06-17 13:02:00,80.0,57.0,-100.00,NE,40,8.0,12.0,46,0.00,,,-99.99,,2013-06-17 17:02:00,
2013-06-17 13:12:00,80.0,57.0,-100.00,NE,40,8.0,12.0,46,0.00,,,-99.99,,2013-06-17 17:12:00,
2013-06-17 13:22:00,80.0,58.0,-100.00,NE,35,9.0,14.0,46,0.00,,,-99.99,,2013-06-17 17:22:00,
2013-06-17 13:33:00,80.0,58.0,-100.00,NE,35,7.0,15.0,46,0.00,,,-99.99,,2013-06-17 17:33:00,
2013-06-17 13:43:00,82.0,59.0,-100.00,NE,45,8.0,12.0,45,0.00,,,-99.99,,2013-06-17 17:43:00,
2013-06-17 13:52:00,80.0,58.0,-100.00,NE,40,5.0,13.0,46,0.00,,,-99.99,,2013-06-17 17:52:00,
2013-06-17 14:02:00,80.0,58.0,-100.00,NE,40,5.0,13.0,46,0.00,,,-99.99,,2013-06-17 18:02:00,
2013-06-17 14:12:00,80.0,60.0,-100.00,NNE,30,8.0,16.0,50,0.00,,,-99.99,,2013-06-17 18:12:00,
2013-06-17 14:23:00,81.0,60.0,-100.00,ENE,60,6.0,12.0,50,0.00,,,-99.99,,2013-06-17 18:23:00,
2013-06-17 14:33:00,81.0,61.0,-100.00,NNE,20,7.0,11.0,50,0.00,,,-99.99,,2013-06-17 18:33:00,
2013-06-17 14:43:00,81.0,60.0,-100.00,NNE,25,7.0,11.0,47,0.00,,,-99.99,,2013-06-17 18:43:00,
2013-06-17 14:53:00,82.0,61.0,-100.00,NE,50,6.0,11.0,48,0.00,,,-99.99,,2013-06-17 18:53:00,
2013-06-17 15:02:00,82.0,61.0,-100.00,NE,50,6.0,11.0,48,0.00,,,-99.99,,2013-06-17 19:02:00,
2013-06-17 15:12:00,83.0,60.0,-100.00,ENE,60,7.0,12.0,45,0.00,,,-99.99,,2013-06-17 19:12:00,
2013-06-17 15:22:00,82.0,58.0,-100.00,NE,35,7.0,14.0,45,0.00,,,-99.99,,2013-06-17 19:22:00,
2013-06-17 15:33:00,82.0,58.0,-100.00,NNE,15,6.0,10.0,44,0.00,,,-99.99,,2013-06-17 19:33:00,
2013-06-17 15:43:00,80.0,62.0,-100.00,East,85,8.0,13.0,54,0.00,,,-99.99,,2013-06-17 19:43:00,
2013-06-17 15:53:00,80.0,62.0,-100.00,East,80,5.0,11.0,55,0.00,,,-99.99,,2013-06-17 19:53:00,
2013-06-17 16:02:00,80.0,62.0,-100.00,East,80,5.0,11.0,55,0.00,,,-99.99,,2013-06-17 20:02:00,
2013-06-17 16:11:00,80.0,62.0,-100.00,NNE,30,7.0,10.0,53,0.00,,,-99.99,,2013-06-17 20:11:00,
2013-06-17 16:22:00,82.0,62.0,-100.00,NE,50,4.0,10.0,51,0.00,,,-99.99,,2013-06-17 20:22:00,
2013-06-17 16:34:00,81.0,61.0,-100.00,NNE,25,6.0,11.0,51,0.00,,,-99.99,,2013-06-17 20:34:00,
2013-06-17 16:43:00,78.0,58.0,-100.00,NNW,335,7.0,12.0,50,0.00,,,-99.99,,2013-06-17 20:43:00,
2013-06-17 16:52:00,78.0,58.0,-100.00,North,0,4.0,11.0,50,0.00,,,-99.99,,2013-06-17 20:52:00,
2013-06-17 17:01:00,78.0,58.0,-100.00,North,0,4.0,11.0,50,0.00,,,-99.99,,2013-06-17 21:01:00,
2013-06-17 17:12:00,79.0,58.0,-100.00,North,355,6.0,10.0,49,0.00,,,-99.99,,2013-06-17 21:12:00,
2013-06-17 17:22:00,79.0,58.0,-100.00,North,5,4.0,8.0,49,0.00,,,-99.99,,2013-06-17 21:22:00,
2013-06-17 17:33:00,80.0,59.0,-100.00,North,0,4.0,7.0,48,0.00,,,-99.99,,2013-06-17 21:33:00,
2013-06-17 17:43:00,81.0,59.0,-100.00,NNE,30,4.0,9.0,47,0.00,,,-99.99,,2013-06-17 21:43:00,
2013-06-17 17:52:00,81.0,58.0,-100.00,North,0,4.0,8.0,46,0.00,,,-99.99,,2013-06-17 21:52:00,
2013-06-17 18:01:00,81.0,58.0,-100.00,NNW,345,3.0,9.0,46,0.00,,,-99.99,,2013-06-17 22:01:00,
2013-06-17 18:11:00,81.0,58.0,-100.00,North,0,5.0,8.0,46,0.00,,,-99.99,,2013-06-17 22:11:00,
2013-06-17 18:22:00,81.0,58.0,-100.00,NNE,25,3.0,6.0,45,0.00,,,-99.99,,2013-06-17 22:22:00,
2013-06-17 18:34:00,80.0,58.0,-100.00,NNW,335,5.0,9.0,47,0.00,,,-99.99,,2013-06-17 22:34:00,
2013-06-17 18:43:00,79.0,58.0,-100.00,NNW,335,7.0,10.0,49,0.00,,,-99.99,,2013-06-17 22:43:00,
2013-06-17 18:53:00,79.0,58.0,-100.00,NNW,335,5.0,8.0,50,0.00,,,-99.99,,2013-06-17 22:53:00,
2013-06-17 19:02:00,78.0,60.0,-100.00,NNW,340,5.0,8.0,52,0.00,,,-99.99,,2013-06-17 23:02:00,
2013-06-17 19:11:00,78.0,59.0,-100.00,NNW,330,4.0,7.0,52,0.00,,,-99.99,,2013-06-17 23:11:00,
2013-06-17 19:22:00,78.0,58.0,-100.00,North,355,4.0,7.0,50,0.00,,,-99.99,,2013-06-17 23:22:00,
2013-06-17 19:32:00,78.0,58.0,-100.00,NNW,335,4.0,6.0,51,0.00,,,-99.99,,2013-06-17 23:32:00,
2013-06-17 19:42:00,77.0,59.0,-100.00,NNW,330,2.0,4.0,53,0.00,,,-99.99,,2013-06-17 23:42:00,
2013-06-17 19:53:00,76.0,60.0,-100.00,NW,315,4.0,4.0,59,0.00,,,-99.99,,2013-06-17 23:53:00,
2013-06-17 20:01:00,75.0,60.0,-100.00,NW,310,4.0,6.0,60,0.00,,,-99.99,,2013-06-18 00:01:00,
2013-06-17 20:12:00,74.0,61.0,-100.00,WNW,300,1.0,4.0,62,0.00,,,-99.99,,2013-06-18 00:12:00,
2013-06-17 20:22:00,74.0,60.0,-100.00,WSW,255,0.0,1.0,60,0.00,,,-99.99,,2013-06-18 00:22:00,
2013-06-17 20:33:00,74.0,61.0,-100.00,SE,130,3.0,4.0,62,0.00,,,-99.99,,2013-06-18 00:33:00,
2013-06-17 20:43:00,71.0,61.0,-100.00,East,95,11.0,23.0,71,0.00,,,-99.99,,2013-06-18 00:43:00,
2013-06-17 21:01:00,67.0,62.0,-100.00,ESE,105,5.0,16.0,86,0.00,,,-99.99,,2013-06-18 01:01:00,
2013-06-17 21:12:00,66.0,63.0,-100.00,ESE,105,4.0,13.0,90,0.55,,,-99.99,,2013-06-18 01:12:00,
2013-06-17 21:23:00,65.0,63.0,-100.00,East,100,4.0,12.0,92,1.10,,,-99.99,,2013-06-18 01:23:00,
2013-06-17 21:34:00,65.0,63.0,-100.00,East,85,7.0,10.0,94,1.69,,,-99.99,,2013-06-18 01:34:00,
2013-06-17 21:44:00,64.0,63.0,-100.00,NNW,345,8.0,11.0,95,1.69,,,-99.99,,2013-06-18 01:44:00,
2013-06-17 21:53:00,64.0,63.0,-100.00,NNW,345,4.0,11.0,95,0.00,,,-99.99,,2013-06-18 01:53:00,
2013-06-17 22:02:00,64.0,62.0,-100.00,West,280,7.0,9.0,96,0.00,,,-99.99,,2013-06-18 02:02:00,
2013-06-17 22:11:00,64.0,62.0,-100.00,West,280,7.0,9.0,96,0.00,,,-99.99,,2013-06-18 02:11:00,
2013-06-17 22:22:00,63.0,62.0,-100.00,West,280,7.0,10.0,96,0.00,,,-99.99,,2013-06-18 02:22:00,
2013-06-17 22:34:00,63.0,62.0,-100.00,SW,230,2.0,7.0,96,0.00,,,-99.99,,2013-06-18 02:34:00,
2013-06-17 22:43:00,63.0,62.0,-100.00,WSW,240,0.0,3.0,96,0.00,,,-99.99,,2013-06-18 02:43:00,
2013-06-17 22:53:00,63.0,62.0,-100.00,West,265,4.0,7.0,96,0.00,,,-99.99,,2013-06-18 02:53:00,
2013-06-17 23:02:00,63.0,62.0,-100.00,West,265,2.0,3.0,96,0.00,,,-99.99,,2013-06-18 03:02:00,
2013-06-17 23:12:00,63.0,62.0,-100.00,West,265,2.0,3.0,96,0.00,,,-99.99,,2013-06-18 03:12:00,
2013-06-17 23:23:00,63.0,62.0,-100.00,NNW,340,4.0,6.0,96,0.00,,,-99.99,,2013-06-18 03:23:00,
2013-06-17 23:34:00,63.0,62.0,-100.00,NNW,335,6.0,8.0,96,0.00,,,-99.99,,2013-06-18 03:34:00,
2013-06-17 23:43:00,63.0,62.0,-100.00,WNW,300,9.0,11.0,96,0.00,,,-99.99,,2013-06-18 03:43:00,
2013-06-17 23:53:00,64.0,63.0,-100.00,ENE,75,17.0,23.0,96,0.00,,,-99.99,,2013-06-18 03:53:00,